sensor_id;sensor_type;location;lat;lon;timestamp;pressure;altitude;pressure_sealevel;temperature;humidity
44839;BME280;30576;42.098;24.876;2023-02-28T00:00:18;100265.19;;;10.80;67.44
44839;BME280;30576;42.098;24.876;2023-02-28T00:02:44;100277.53;;;10.72;67.66
44839;BME280;30576;42.098;24.876;2023-02-28T00:05:12;100215.34;;;10.34;68.44
44839;BME280;30576;42.098;24.876;2023-02-28T00:07:38;100280.25;;;10.61;69.11
44839;BME280;30576;42.098;24.876;2023-02-28T00:10:05;100272.31;;;10.63;69.17
44839;BME280;30576;42.098;24.876;2023-02-28T00:12:32;100268.03;;;10.48;68.80
44839;BME280;30576;42.098;24.876;2023-02-28T00:14:57;100279.34;;;10.65;68.73
44839;BME280;30576;42.098;24.876;2023-02-28T00:17:22;100253.13;;;10.39;68.94
44839;BME280;30576;42.098;24.876;2023-02-28T00:19:48;100279.41;;;10.56;69.23
44839;BME280;30576;42.098;24.876;2023-02-28T00:22:15;100239.91;;;10.44;68.92
44839;BME280;30576;42.098;24.876;2023-02-28T00:24:41;100265.28;;;10.66;68.69
44839;BME280;30576;42.098;24.876;2023-02-28T00:27:06;100265.25;;;10.69;68.86
44839;BME280;30576;42.098;24.876;2023-02-28T00:29:31;100267.97;;;10.59;68.83
44839;BME280;30576;42.098;24.876;2023-02-28T00:31:57;100253.88;;;10.60;68.14
44839;BME280;30576;42.098;24.876;2023-02-28T00:34:22;100264.34;;;10.73;68.20
44839;BME280;30576;42.098;24.876;2023-02-28T00:36:47;100270.44;;;10.85;67.99
44839;BME280;30576;42.098;24.876;2023-02-28T00:39:16;100254.66;;;10.75;67.18
44839;BME280;30576;42.098;24.876;2023-02-28T00:41:41;100268.66;;;10.87;67.59
44839;BME280;30576;42.098;24.876;2023-02-28T00:44:07;100234.44;;;10.73;67.05
44839;BME280;30576;42.098;24.876;2023-02-28T00:46:32;100282.59;;;11.03;66.61
44839;BME280;30576;42.098;24.876;2023-02-28T00:48:58;100207.28;;;10.60;66.29
44839;BME280;30576;42.098;24.876;2023-02-28T00:51:23;100286.94;;;11.13;65.99
44839;BME280;30576;42.098;24.876;2023-02-28T00:53:49;100288.69;;;11.16;66.09
44839;BME280;30576;42.098;24.876;2023-02-28T00:56:14;100202.78;;;10.71;66.04
44839;BME280;30576;42.098;24.876;2023-02-28T00:58:40;100279.94;;;11.07;66.96
44839;BME280;30576;42.098;24.876;2023-02-28T01:01:05;100293.97;;;11.17;66.62
44839;BME280;30576;42.098;24.876;2023-02-28T01:03:31;100271.03;;;11.22;66.17
44839;BME280;30576;42.098;24.876;2023-02-28T01:05:56;100303.31;;;11.55;64.92
44839;BME280;30576;42.098;24.876;2023-02-28T01:08:22;100271.22;;;10.96;65.82
44839;BME280;30576;42.098;24.876;2023-02-28T01:10:48;100307.41;;;10.83;66.71
44839;BME280;30576;42.098;24.876;2023-02-28T01:13:14;100302.03;;;10.96;66.26
44839;BME280;30576;42.098;24.876;2023-02-28T01:15:42;100251.97;;;10.83;66.68
44839;BME280;30576;42.098;24.876;2023-02-28T01:18:09;100323.72;;;11.38;66.15
44839;BME280;30576;42.098;24.876;2023-02-28T01:20:36;100326.34;;;11.39;65.29
44839;BME280;30576;42.098;24.876;2023-02-28T01:23:02;100288.72;;;11.13;65.13
44839;BME280;30576;42.098;24.876;2023-02-28T01:25:27;100323.97;;;11.04;66.47
44839;BME280;30576;42.098;24.876;2023-02-28T01:27:52;100330.19;;;10.95;66.79
44839;BME280;30576;42.098;24.876;2023-02-28T01:30:18;100316.28;;;10.67;65.68
44839;BME280;30576;42.098;24.876;2023-02-28T01:32:43;100332.94;;;10.73;65.80
44839;BME280;30576;42.098;24.876;2023-02-28T01:35:08;100339.94;;;10.84;65.48
44839;BME280;30576;42.098;24.876;2023-02-28T01:37:35;100333.84;;;10.72;65.71
44839;BME280;30576;42.098;24.876;2023-02-28T01:40:00;100345.34;;;10.61;66.60
44839;BME280;30576;42.098;24.876;2023-02-28T01:42:26;100341.75;;;10.79;66.18
44839;BME280;30576;42.098;24.876;2023-02-28T01:47:28;100325.03;;;10.72;65.24
44839;BME280;30576;42.098;24.876;2023-02-28T01:49:54;100336.47;;;10.77;64.87
44839;BME280;30576;42.098;24.876;2023-02-28T01:52:20;100366.38;;;10.73;65.79
44839;BME280;30576;42.098;24.876;2023-02-28T01:54:51;100352.41;;;10.57;66.30
44839;BME280;30576;42.098;24.876;2023-02-28T01:57:20;100341.09;;;10.23;66.33
44839;BME280;30576;42.098;24.876;2023-02-28T01:59:59;100316.47;;;10.19;65.85
44839;BME280;30576;42.098;24.876;2023-02-28T02:02:27;100380.50;;;10.58;65.40
44839;BME280;30576;42.098;24.876;2023-02-28T02:05:00;100373.56;;;10.28;65.80
44839;BME280;30576;42.098;24.876;2023-02-28T02:07:31;100351.69;;;10.04;66.55
44839;BME280;30576;42.098;24.876;2023-02-28T02:18:57;100403.50;;;10.05;66.75
44839;BME280;30576;42.098;24.876;2023-02-28T02:30:13;100407.91;;;10.00;68.41
44839;BME280;30576;42.098;24.876;2023-02-28T02:35:55;100394.75;;;9.80;69.75
44839;BME280;30576;42.098;24.876;2023-02-28T02:38:32;100406.13;;;10.05;69.61
44839;BME280;30576;42.098;24.876;2023-02-28T02:44:13;100390.31;;;9.25;71.40
44839;BME280;30576;42.098;24.876;2023-02-28T02:46:45;100380.59;;;8.82;74.96
44839;BME280;30576;42.098;24.876;2023-02-28T02:49:18;100407.81;;;8.92;75.98
44839;BME280;30576;42.098;24.876;2023-02-28T02:51:46;100400.75;;;8.86;78.06
44839;BME280;30576;42.098;24.876;2023-02-28T02:54:17;100393.75;;;8.84;78.70
44839;BME280;30576;42.098;24.876;2023-02-28T02:56:47;100402.50;;;8.81;80.29
44839;BME280;30576;42.098;24.876;2023-02-28T02:59:17;100420.16;;;9.18;80.08
44839;BME280;30576;42.098;24.876;2023-02-28T03:01:48;100398.16;;;9.00;80.26
44839;BME280;30576;42.098;24.876;2023-02-28T03:04:18;100409.63;;;9.08;80.62
44839;BME280;30576;42.098;24.876;2023-02-28T03:06:44;100358.63;;;8.77;81.11
44839;BME280;30576;42.098;24.876;2023-02-28T03:09:09;100430.69;;;9.21;82.08
44839;BME280;30576;42.098;24.876;2023-02-28T03:11:35;100437.69;;;9.12;82.37
44839;BME280;30576;42.098;24.876;2023-02-28T03:19:25;100457.88;;;9.20;83.88
44839;BME280;30576;42.098;24.876;2023-02-28T03:24:35;100452.66;;;9.29;84.55
44839;BME280;30576;42.098;24.876;2023-02-28T03:27:16;100474.56;;;9.23;85.07
44839;BME280;30576;42.098;24.876;2023-02-28T03:29:50;100441.25;;;9.36;83.74
44839;BME280;30576;42.098;24.876;2023-02-28T03:32:23;100445.63;;;9.42;83.63
44839;BME280;30576;42.098;24.876;2023-02-28T03:35:05;100446.53;;;9.31;83.61
44839;BME280;30576;42.098;24.876;2023-02-28T03:37:34;100467.63;;;9.56;82.69
44839;BME280;30576;42.098;24.876;2023-02-28T03:40:22;100450.91;;;9.45;83.45
44839;BME280;30576;42.098;24.876;2023-02-28T03:42:52;100423.69;;;9.35;83.06
44839;BME280;30576;42.098;24.876;2023-02-28T03:45:23;100433.38;;;9.42;82.73
44839;BME280;30576;42.098;24.876;2023-02-28T03:47:53;100472.91;;;9.61;82.64
44839;BME280;30576;42.098;24.876;2023-02-28T03:50:47;100452.69;;;9.46;82.95
44839;BME280;30576;42.098;24.876;2023-02-28T03:55:49;100477.28;;;9.59;82.00
44839;BME280;30576;42.098;24.876;2023-02-28T04:00:46;100479.91;;;9.59;81.56
44839;BME280;30576;42.098;24.876;2023-02-28T04:03:14;100486.06;;;9.58;81.95
44839;BME280;30576;42.098;24.876;2023-02-28T04:05:46;100481.63;;;9.35;82.91
44839;BME280;30576;42.098;24.876;2023-02-28T04:08:14;100462.19;;;8.90;83.55
44839;BME280;30576;42.098;24.876;2023-02-28T04:10:39;100500.84;;;9.14;82.63
44839;BME280;30576;42.098;24.876;2023-02-28T04:13:05;100508.78;;;9.23;83.08
44839;BME280;30576;42.098;24.876;2023-02-28T04:15:30;100514.06;;;9.25;82.21
44839;BME280;30576;42.098;24.876;2023-02-28T04:17:57;100491.25;;;9.19;81.44
44839;BME280;30576;42.098;24.876;2023-02-28T04:20:22;100514.09;;;9.42;81.33
44839;BME280;30576;42.098;24.876;2023-02-28T04:22:47;100444.59;;;8.80;81.76
44839;BME280;30576;42.098;24.876;2023-02-28T04:25:13;100512.28;;;9.14;82.25
44839;BME280;30576;42.098;24.876;2023-02-28T04:27:38;100507.03;;;9.21;81.91
44839;BME280;30576;42.098;24.876;2023-02-28T04:30:04;100494.72;;;9.10;81.49
44839;BME280;30576;42.098;24.876;2023-02-28T04:32:30;100503.53;;;9.29;81.55
44839;BME280;30576;42.098;24.876;2023-02-28T04:34:55;100486.81;;;9.13;81.04
44839;BME280;30576;42.098;24.876;2023-02-28T04:37:20;100507.06;;;9.27;81.21
44839;BME280;30576;42.098;24.876;2023-02-28T04:39:47;100478.97;;;9.32;79.59
44839;BME280;30576;42.098;24.876;2023-02-28T04:42:13;100513.22;;;9.35;80.23
44839;BME280;30576;42.098;24.876;2023-02-28T04:44:38;100513.25;;;9.41;79.64
44839;BME280;30576;42.098;24.876;2023-02-28T04:47:04;100482.41;;;9.06;80.41
44839;BME280;30576;42.098;24.876;2023-02-28T04:49:29;100523.72;;;9.23;80.45
44839;BME280;30576;42.098;24.876;2023-02-28T04:51:55;100528.13;;;9.25;80.52
44839;BME280;30576;42.098;24.876;2023-02-28T04:54:21;100502.63;;;9.20;79.51
44839;BME280;30576;42.098;24.876;2023-02-28T04:56:46;100530.75;;;9.24;80.42
44839;BME280;30576;42.098;24.876;2023-02-28T04:59:13;100529.84;;;9.23;80.28
44839;BME280;30576;42.098;24.876;2023-02-28T05:01:38;100536.00;;;9.19;80.70
44839;BME280;30576;42.098;24.876;2023-02-28T05:04:05;100509.63;;;9.08;80.95
44839;BME280;30576;42.098;24.876;2023-02-28T05:06:31;100535.03;;;9.02;80.74
44839;BME280;30576;42.098;24.876;2023-02-28T05:08:58;100523.63;;;9.01;81.14
44839;BME280;30576;42.098;24.876;2023-02-28T05:11:26;100539.47;;;9.10;80.69
44839;BME280;30576;42.098;24.876;2023-02-28T05:13:54;100520.97;;;8.93;80.63
44839;BME280;30576;42.098;24.876;2023-02-28T05:16:20;100512.97;;;8.76;80.64
44839;BME280;30576;42.098;24.876;2023-02-28T05:18:46;100556.06;;;9.02;81.13
44839;BME280;30576;42.098;24.876;2023-02-28T05:21:32;100539.28;;;8.76;81.27
44839;BME280;30576;42.098;24.876;2023-02-28T05:24:01;100541.00;;;8.68;81.82
44839;BME280;30576;42.098;24.876;2023-02-28T05:26:27;100523.31;;;8.46;83.12
44839;BME280;30576;42.098;24.876;2023-02-28T05:28:53;100569.16;;;8.91;82.75
44839;BME280;30576;42.098;24.876;2023-02-28T05:31:18;100567.53;;;9.08;81.68
44839;BME280;30576;42.098;24.876;2023-02-28T05:33:43;100572.69;;;8.88;82.05
44839;BME280;30576;42.098;24.876;2023-02-28T05:36:09;100574.31;;;8.69;82.81
44839;BME280;30576;42.098;24.876;2023-02-28T05:38:34;100554.88;;;8.49;82.90
44839;BME280;30576;42.098;24.876;2023-02-28T05:41:00;100576.06;;;8.69;83.05
44839;BME280;30576;42.098;24.876;2023-02-28T05:43:25;100579.69;;;8.88;82.53
44839;BME280;30576;42.098;24.876;2023-02-28T05:45:51;100584.06;;;8.86;82.30
44839;BME280;30576;42.098;24.876;2023-02-28T05:48:17;100553.31;;;8.80;82.18
44839;BME280;30576;42.098;24.876;2023-02-28T05:50:43;100593.88;;;9.14;81.82
44839;BME280;30576;42.098;24.876;2023-02-28T05:53:11;100567.34;;;8.76;81.76
44839;BME280;30576;42.098;24.876;2023-02-28T05:55:36;100604.28;;;8.91;82.17
44839;BME280;30576;42.098;24.876;2023-02-28T05:58:02;100578.78;;;8.83;81.47
44839;BME280;30576;42.098;24.876;2023-02-28T06:00:28;100608.81;;;9.19;80.79
44839;BME280;30576;42.098;24.876;2023-02-28T06:02:53;100608.03;;;9.41;80.09
44839;BME280;30576;42.098;24.876;2023-02-28T06:05:21;100608.81;;;9.22;80.50
44839;BME280;30576;42.098;24.876;2023-02-28T06:07:47;100597.38;;;9.15;80.16
44839;BME280;30576;42.098;24.876;2023-02-28T06:10:13;100612.34;;;9.18;80.17
44839;BME280;30576;42.098;24.876;2023-02-28T06:12:38;100622.00;;;9.26;81.19
44839;BME280;30576;42.098;24.876;2023-02-28T06:15:07;100592.94;;;9.08;80.51
44839;BME280;30576;42.098;24.876;2023-02-28T06:17:33;100642.25;;;9.35;79.96
44839;BME280;30576;42.098;24.876;2023-02-28T06:19:58;100629.13;;;9.44;80.19
44839;BME280;30576;42.098;24.876;2023-02-28T06:22:24;100603.56;;;9.25;79.38
44839;BME280;30576;42.098;24.876;2023-02-28T06:24:49;100629.97;;;9.42;79.92
44839;BME280;30576;42.098;24.876;2023-02-28T06:27:15;100625.47;;;9.11;80.90
44839;BME280;30576;42.098;24.876;2023-02-28T06:29:40;100623.59;;;8.96;81.67
44839;BME280;30576;42.098;24.876;2023-02-28T06:32:06;100629.78;;;9.06;81.52
44839;BME280;30576;42.098;24.876;2023-02-28T06:34:31;100603.44;;;9.02;81.31
44839;BME280;30576;42.098;24.876;2023-02-28T06:36:59;100609.66;;;9.10;81.00
44839;BME280;30576;42.098;24.876;2023-02-28T06:39:30;100634.38;;;9.40;80.29
44839;BME280;30576;42.098;24.876;2023-02-28T06:41:56;100622.97;;;9.38;80.33
44839;BME280;30576;42.098;24.876;2023-02-28T06:44:23;100607.94;;;9.17;80.92
44839;BME280;30576;42.098;24.876;2023-02-28T06:46:49;100629.03;;;9.24;80.64
44839;BME280;30576;42.098;24.876;2023-02-28T06:49:14;100640.50;;;9.42;80.93
44839;BME280;30576;42.098;24.876;2023-02-28T06:51:42;100629.84;;;9.16;80.75
44839;BME280;30576;42.098;24.876;2023-02-28T06:54:10;100626.31;;;9.12;81.22
44839;BME280;30576;42.098;24.876;2023-02-28T06:56:36;100563.00;;;8.86;81.25
44839;BME280;30576;42.098;24.876;2023-02-28T06:59:02;100633.41;;;9.24;80.27
44839;BME280;30576;42.098;24.876;2023-02-28T07:01:28;100610.38;;;8.86;81.09
44839;BME280;30576;42.098;24.876;2023-02-28T07:03:54;100639.56;;;9.26;80.60
44839;BME280;30576;42.098;24.876;2023-02-28T07:06:21;100624.59;;;9.19;79.59
44839;BME280;30576;42.098;24.876;2023-02-28T07:08:51;100618.28;;;8.86;80.35
44839;BME280;30576;42.098;24.876;2023-02-28T07:11:21;100603.34;;;8.85;80.82
44839;BME280;30576;42.098;24.876;2023-02-28T07:13:48;100637.66;;;9.00;80.79
44839;BME280;30576;42.098;24.876;2023-02-28T07:16:14;100622.75;;;8.99;81.96
44839;BME280;30576;42.098;24.876;2023-02-28T07:18:39;100630.66;;;8.99;82.36
44839;BME280;30576;42.098;24.876;2023-02-28T07:21:05;100630.66;;;9.01;82.15
44839;BME280;30576;42.098;24.876;2023-02-28T07:23:32;100601.53;;;8.73;83.04
44839;BME280;30576;42.098;24.876;2023-02-28T07:25:57;100642.91;;;9.00;82.66
44839;BME280;30576;42.098;24.876;2023-02-28T07:28:23;100638.47;;;8.88;82.34
44839;BME280;30576;42.098;24.876;2023-02-28T07:30:48;100635.00;;;8.97;82.17
44839;BME280;30576;42.098;24.876;2023-02-28T07:33:14;100644.56;;;8.86;82.99
44839;BME280;30576;42.098;24.876;2023-02-28T07:35:40;100644.59;;;8.90;83.11
44839;BME280;30576;42.098;24.876;2023-02-28T07:38:06;100656.97;;;9.02;82.07
44839;BME280;30576;42.098;24.876;2023-02-28T07:40:33;100639.53;;;9.18;81.90
44839;BME280;30576;42.098;24.876;2023-02-28T07:42:59;100659.78;;;9.28;80.63
44839;BME280;30576;42.098;24.876;2023-02-28T07:45:26;100642.22;;;9.27;80.68
44839;BME280;30576;42.098;24.876;2023-02-28T07:47:51;100656.28;;;9.32;80.31
44839;BME280;30576;42.098;24.876;2023-02-28T07:50:17;100638.59;;;9.10;80.81
44839;BME280;30576;42.098;24.876;2023-02-28T07:52:42;100665.91;;;9.26;80.61
44839;BME280;30576;42.098;24.876;2023-02-28T07:55:08;100656.31;;;9.39;80.83
44839;BME280;30576;42.098;24.876;2023-02-28T07:57:34;100650.16;;;9.37;79.91
44839;BME280;30576;42.098;24.876;2023-02-28T08:00:00;100660.78;;;9.52;80.44
44839;BME280;30576;42.098;24.876;2023-02-28T08:02:25;100621.13;;;9.26;80.43
44839;BME280;30576;42.098;24.876;2023-02-28T08:04:51;100666.75;;;9.26;80.07
44839;BME280;30576;42.098;24.876;2023-02-28T08:07:17;100651.81;;;9.18;80.62
44839;BME280;30576;42.098;24.876;2023-02-28T08:09:44;100628.91;;;9.04;80.81
44839;BME280;30576;42.098;24.876;2023-02-28T08:12:11;100636.84;;;9.12;80.67
44839;BME280;30576;42.098;24.876;2023-02-28T08:14:37;100640.41;;;9.23;80.25
44839;BME280;30576;42.098;24.876;2023-02-28T08:17:03;100627.16;;;9.08;80.21
44839;BME280;30576;42.098;24.876;2023-02-28T08:19:29;100663.41;;;9.54;79.42
44839;BME280;30576;42.098;24.876;2023-02-28T08:21:56;100618.50;;;9.23;79.74
44839;BME280;30576;42.098;24.876;2023-02-28T08:24:21;100661.63;;;9.48;80.58
44839;BME280;30576;42.098;24.876;2023-02-28T08:26:47;100669.44;;;9.31;80.95
44839;BME280;30576;42.098;24.876;2023-02-28T08:29:12;100634.25;;;9.17;81.04
44839;BME280;30576;42.098;24.876;2023-02-28T08:31:38;100658.06;;;9.37;81.18
44839;BME280;30576;42.098;24.876;2023-02-28T08:34:07;100668.53;;;9.27;81.50
44839;BME280;30576;42.098;24.876;2023-02-28T08:36:33;100653.56;;;9.20;81.38
44839;BME280;30576;42.098;24.876;2023-02-28T08:38:58;100662.38;;;9.24;81.52
44839;BME280;30576;42.098;24.876;2023-02-28T08:41:25;100635.09;;;9.11;81.25
44839;BME280;30576;42.098;24.876;2023-02-28T08:43:51;100648.31;;;9.22;80.71
44839;BME280;30576;42.098;24.876;2023-02-28T08:46:17;100672.09;;;9.40;81.18
44839;BME280;30576;42.098;24.876;2023-02-28T08:48:43;100650.09;;;9.23;81.04
44839;BME280;30576;42.098;24.876;2023-02-28T08:51:12;100655.22;;;9.03;82.09
44839;BME280;30576;42.098;24.876;2023-02-28T08:53:38;100659.69;;;9.14;82.21
44839;BME280;30576;42.098;24.876;2023-02-28T08:56:07;100675.56;;;9.24;82.22
44839;BME280;30576;42.098;24.876;2023-02-28T08:58:33;100648.25;;;9.11;82.09
44839;BME280;30576;42.098;24.876;2023-02-28T09:00:59;100666.72;;;9.19;82.20
44839;BME280;30576;42.098;24.876;2023-02-28T09:03:25;100669.34;;;9.20;82.74
44839;BME280;30576;42.098;24.876;2023-02-28T09:05:59;100655.16;;;8.95;82.69
44839;BME280;30576;42.098;24.876;2023-02-28T09:08:27;100662.28;;;9.07;83.35
44839;BME280;30576;42.098;24.876;2023-02-28T09:10:53;100675.53;;;9.22;83.14
44839;BME280;30576;42.098;24.876;2023-02-28T09:13:20;100658.84;;;9.25;81.99
44839;BME280;30576;42.098;24.876;2023-02-28T09:15:46;100663.25;;;9.24;83.29
44839;BME280;30576;42.098;24.876;2023-02-28T09:18:11;100664.94;;;9.11;83.29
44839;BME280;30576;42.098;24.876;2023-02-28T09:20:38;100658.88;;;9.29;83.03
44839;BME280;30576;42.098;24.876;2023-02-28T09:23:05;100657.25;;;9.47;81.93
44839;BME280;30576;42.098;24.876;2023-02-28T09:25:30;100661.63;;;9.51;81.62
44839;BME280;30576;42.098;24.876;2023-02-28T09:27:55;100633.59;;;9.62;80.59
44839;BME280;30576;42.098;24.876;2023-02-28T09:30:21;100646.81;;;9.75;79.81
44839;BME280;30576;42.098;24.876;2023-02-28T09:32:46;100652.09;;;9.76;80.26
44839;BME280;30576;42.098;24.876;2023-02-28T09:35:18;100607.97;;;9.27;81.15
44839;BME280;30576;42.098;24.876;2023-02-28T09:37:44;100615.91;;;9.32;81.50
44839;BME280;30576;42.098;24.876;2023-02-28T09:40:11;100638.75;;;9.36;81.55
44839;BME280;30576;42.098;24.876;2023-02-28T09:42:37;100619.34;;;9.19;81.34
44839;BME280;30576;42.098;24.876;2023-02-28T09:46:11;100630.75;;;9.18;82.48
44839;BME280;30576;42.098;24.876;2023-02-28T09:48:23;100662.56;;;9.59;81.38
44839;BME280;30576;42.098;24.876;2023-02-28T09:51:03;100642.19;;;9.24;82.01
44839;BME280;30576;42.098;24.876;2023-02-28T09:53:32;100639.53;;;9.20;82.50
44839;BME280;30576;42.098;24.876;2023-02-28T09:56:04;100631.56;;;9.09;82.94
44839;BME280;30576;42.098;24.876;2023-02-28T10:06:53;100613.19;;;9.18;82.76
44839;BME280;30576;42.098;24.876;2023-02-28T10:09:21;100623.06;;;9.61;82.54
44839;BME280;30576;42.098;24.876;2023-02-28T10:11:52;100620.38;;;9.48;81.50
44839;BME280;30576;42.098;24.876;2023-02-28T10:14:21;100595.78;;;9.48;81.25
44839;BME280;30576;42.098;24.876;2023-02-28T10:16:56;100587.78;;;9.28;81.40
44839;BME280;30576;42.098;24.876;2023-02-28T10:19:44;100616.88;;;9.59;81.14
44839;BME280;30576;42.098;24.876;2023-02-28T10:23:02;100622.13;;;9.53;81.17
44839;BME280;30576;42.098;24.876;2023-02-28T10:25:21;100619.41;;;9.32;81.90
44839;BME280;30576;42.098;24.876;2023-02-28T10:27:47;100610.66;;;9.37;82.33
44839;BME280;30576;42.098;24.876;2023-02-28T10:30:12;100606.28;;;9.45;82.44
44839;BME280;30576;42.098;24.876;2023-02-28T10:32:49;100564.00;;;9.11;82.23
44839;BME280;30576;42.098;24.876;2023-02-28T10:35:21;100610.72;;;9.50;81.93
44839;BME280;30576;42.098;24.876;2023-02-28T10:37:53;100617.66;;;9.33;82.27
44839;BME280;30576;42.098;24.876;2023-02-28T10:42:54;100610.63;;;9.29;82.75
44839;BME280;30576;42.098;24.876;2023-02-28T10:45:20;100607.09;;;9.24;82.89
44839;BME280;30576;42.098;24.876;2023-02-28T10:50:43;100605.31;;;9.20;83.31
44839;BME280;30576;42.098;24.876;2023-02-28T10:58:49;100609.69;;;9.16;82.99
44839;BME280;30576;42.098;24.876;2023-02-28T11:01:21;100587.72;;;9.17;83.32
44839;BME280;30576;42.098;24.876;2023-02-28T11:03:47;100560.47;;;9.04;82.82
44839;BME280;30576;42.098;24.876;2023-02-28T11:06:19;100589.53;;;9.21;83.39
44839;BME280;30576;42.098;24.876;2023-02-28T11:08:58;100570.06;;;8.91;83.45
44839;BME280;30576;42.098;24.876;2023-02-28T11:11:27;100589.38;;;8.92;84.12
44839;BME280;30576;42.098;24.876;2023-02-28T11:14:03;100577.03;;;8.86;85.30
44839;BME280;30576;42.098;24.876;2023-02-28T11:16:33;100582.38;;;9.00;84.88
44839;BME280;30576;42.098;24.876;2023-02-28T11:18:59;100582.34;;;8.92;84.92
44839;BME280;30576;42.098;24.876;2023-02-28T11:21:32;100580.72;;;9.16;84.50
44839;BME280;30576;42.098;24.876;2023-02-28T11:24:22;100577.25;;;9.25;83.63
44839;BME280;30576;42.098;24.876;2023-02-28T11:26:50;100543.75;;;8.88;84.42
44839;BME280;30576;42.098;24.876;2023-02-28T11:32:05;100569.16;;;8.89;84.97
44839;BME280;30576;42.098;24.876;2023-02-28T11:34:31;100552.50;;;8.89;85.50
44839;BME280;30576;42.098;24.876;2023-02-28T11:36:58;100587.81;;;9.36;84.11
44839;BME280;30576;42.098;24.876;2023-02-28T11:39:26;100578.19;;;9.35;83.78
44839;BME280;30576;42.098;24.876;2023-02-28T11:48:21;100571.09;;;9.20;84.54
44839;BME280;30576;42.098;24.876;2023-02-28T11:51:06;100540.28;;;9.03;85.16
44839;BME280;30576;42.098;24.876;2023-02-28T12:04:40;100563.13;;;9.06;86.72
44839;BME280;30576;42.098;24.876;2023-02-28T12:12:21;100557.03;;;9.11;87.25
44839;BME280;30576;42.098;24.876;2023-02-28T12:20:45;100555.22;;;9.03;88.90
44839;BME280;30576;42.098;24.876;2023-02-28T12:28:37;100536.81;;;9.10;87.00
44839;BME280;30576;42.098;24.876;2023-02-28T12:31:11;100562.38;;;9.36;86.23
44839;BME280;30576;42.098;24.876;2023-02-28T12:33:45;100559.75;;;9.35;86.48
44839;BME280;30576;42.098;24.876;2023-02-28T12:36:14;100542.13;;;9.23;86.79
44839;BME280;30576;42.098;24.876;2023-02-28T12:39:08;100526.31;;;9.15;86.57
44839;BME280;30576;42.098;24.876;2023-02-28T12:41:49;100560.56;;;9.23;87.52
44839;BME280;30576;42.098;24.876;2023-02-28T12:44:21;100566.78;;;9.42;86.62
44839;BME280;30576;42.098;24.876;2023-02-28T12:46:51;100536.84;;;9.18;87.12
44839;BME280;30576;42.098;24.876;2023-02-28T12:49:30;100542.97;;;9.11;88.30
44839;BME280;30576;42.098;24.876;2023-02-28T12:52:00;100535.03;;;9.05;89.81
44839;BME280;30576;42.098;24.876;2023-02-28T12:57:28;100504.50;;;9.50;87.03
44839;BME280;30576;42.098;24.876;2023-02-28T13:00:04;100529.97;;;9.73;86.73
44839;BME280;30576;42.098;24.876;2023-02-28T13:11:48;100508.63;;;8.88;90.93
44839;BME280;30576;42.098;24.876;2023-02-28T13:17:02;100529.91;;;9.40;89.62
44839;BME280;30576;42.098;24.876;2023-02-28T13:19:33;100539.63;;;9.60;88.93
44839;BME280;30576;42.098;24.876;2023-02-28T13:22:00;100522.91;;;9.41;87.53
44839;BME280;30576;42.098;24.876;2023-02-28T13:29:36;100502.69;;;9.40;86.71
44839;BME280;30576;42.098;24.876;2023-02-28T13:34:27;100532.53;;;9.43;88.96
44839;BME280;30576;42.098;24.876;2023-02-28T13:37:20;100528.19;;;9.48;88.83
44839;BME280;30576;42.098;24.876;2023-02-28T13:48:02;100521.22;;;9.72;88.14
44839;BME280;30576;42.098;24.876;2023-02-28T13:50:38;100507.13;;;9.44;88.37
44839;BME280;30576;42.098;24.876;2023-02-28T13:58:41;100530.88;;;9.62;89.94
44839;BME280;30576;42.098;24.876;2023-02-28T14:06:21;100518.59;;;9.98;89.01
44839;BME280;30576;42.098;24.876;2023-02-28T14:11:44;100531.75;;;9.67;89.80
44839;BME280;30576;42.098;24.876;2023-02-28T14:17:05;100549.34;;;9.75;90.33
44839;BME280;30576;42.098;24.876;2023-02-28T14:19:34;100524.75;;;9.94;89.70
44839;BME280;30576;42.098;24.876;2023-02-28T14:22:32;100529.16;;;10.17;87.97
44839;BME280;30576;42.098;24.876;2023-02-28T14:30:36;100546.69;;;9.73;89.76
44839;BME280;30576;42.098;24.876;2023-02-28T14:33:18;100540.50;;;9.62;92.19
44839;BME280;30576;42.098;24.876;2023-02-28T14:38:52;100524.66;;;9.53;92.40
44839;BME280;30576;42.098;24.876;2023-02-28T14:41:39;100507.16;;;9.56;92.01
44839;BME280;30576;42.098;24.876;2023-02-28T14:44:25;100512.38;;;9.47;92.01
44839;BME280;30576;42.098;24.876;2023-02-28T14:47:02;100450.78;;;8.94;93.52
44839;BME280;30576;42.098;24.876;2023-02-28T14:49:50;100547.53;;;9.61;93.31
44839;BME280;30576;42.098;24.876;2023-02-28T14:52:50;100543.06;;;9.40;94.10
44839;BME280;30576;42.098;24.876;2023-02-28T14:55:14;100546.59;;;9.36;95.03
44839;BME280;30576;42.098;24.876;2023-02-28T14:58:03;100550.88;;;9.16;95.79
44839;BME280;30576;42.098;24.876;2023-02-28T15:00:34;100515.72;;;8.98;96.77
44839;BME280;30576;42.098;24.876;2023-02-28T15:22:04;100552.28;;;8.53;99.00
44839;BME280;30576;42.098;24.876;2023-02-28T15:24:41;100596.31;;;8.79;99.09
44839;BME280;30576;42.098;24.876;2023-02-28T15:27:21;100579.56;;;8.69;99.02
44839;BME280;30576;42.098;24.876;2023-02-28T15:29:55;100569.88;;;8.62;99.34
44839;BME280;30576;42.098;24.876;2023-02-28T15:32:33;100573.44;;;8.69;98.43
44839;BME280;30576;42.098;24.876;2023-02-28T15:35:37;100571.63;;;8.63;99.10
44839;BME280;30576;42.098;24.876;2023-02-28T15:40:43;100570.69;;;8.53;99.95
44839;BME280;30576;42.098;24.876;2023-02-28T15:43:24;100581.34;;;8.72;99.72
44839;BME280;30576;42.098;24.876;2023-02-28T15:46:03;100587.47;;;8.71;99.26
44839;BME280;30576;42.098;24.876;2023-02-28T15:51:18;100588.16;;;8.45;100.00
44839;BME280;30576;42.098;24.876;2023-02-28T15:53:54;100572.19;;;8.25;100.00